Time;durP1;ratioP1;P1;durP2;ratioP2;P2;SDS_P1;SDS_P2;PMS_P1;PMS_P2;Temp;Humidity;BMP_temperature;BMP_pressure;BME280_temperature;BME280_humidity;BME280_pressure;Samples;Min_cycle;Max_cycle;Signal;HPM_P1;HPM_P2
2021/11/11 00:01:39;;;;;;;33.42;14.32;;;9.20;99.90;;;;;;5044695;28;20041;-76
2021/11/11 00:04:05;;;;;;;35.42;13.68;;;9.20;99.90;;;;;;5044538;28;20029;-77
2021/11/11 00:06:31;;;;;;;24.77;10.90;;;9.20;99.90;;;;;;5045653;28;20129;-77
2021/11/11 00:08:56;;;;;;;33.85;12.93;;;9.10;99.90;;;;;;5044308;28;20088;-77
2021/11/11 00:11:22;;;;;;;40.30;13.50;;;9.20;99.90;;;;;;5044457;28;20028;-77
2021/11/11 00:13:48;;;;;;;28.63;12.43;;;9.20;99.90;;;;;;5045916;28;20528;-77
2021/11/11 00:16:14;;;;;;;37.40;15.35;;;9.20;99.90;;;;;;5045459;28;20029;-77
2021/11/11 00:18:39;;;;;;;26.58;13.35;;;9.20;99.90;;;;;;5045578;28;20026;-76
2021/11/11 00:21:06;;;;;;;27.65;11.43;;;9.10;99.90;;;;;;5045340;28;20049;-77
2021/11/11 00:23:32;;;;;;;33.10;13.68;;;9.20;99.90;;;;;;5044335;28;20067;-77
2021/11/11 00:25:57;;;;;;;30.42;12.82;;;9.20;99.90;;;;;;5045279;28;20037;-77
2021/11/11 00:28:23;;;;;;;48.65;14.15;;;9.20;99.90;;;;;;5044195;28;20049;-77
2021/11/11 00:30:49;;;;;;;41.67;12.88;;;9.20;99.90;;;;;;5043835;28;20061;-77
2021/11/11 00:33:15;;;;;;;31.50;12.98;;;9.20;99.90;;;;;;5045230;28;20026;-77
2021/11/11 00:35:40;;;;;;;28.52;12.35;;;9.20;99.90;;;;;;5045121;28;20073;-78
2021/11/11 00:38:06;;;;;;;28.50;12.88;;;9.20;99.90;;;;;;5045100;28;20045;-78
2021/11/11 00:40:32;;;;;;;31.58;13.35;;;9.20;99.90;;;;;;5045010;28;20032;-77
2021/11/11 00:42:59;;;;;;;40.33;14.85;;;9.20;99.90;;;;;;5044961;28;20116;-76
2021/11/11 00:45:25;;;;;;;33.13;13.63;;;9.20;99.90;;;;;;5045168;28;20041;-77
2021/11/11 00:47:52;;;;;;;30.30;13.00;;;9.10;99.90;;;;;;5044991;28;20025;-78
2021/11/11 00:50:21;;;;;;;39.70;14.35;;;9.10;99.90;;;;;;5045162;28;20053;-77
2021/11/11 00:52:47;;;;;;;27.65;13.25;;;9.20;99.90;;;;;;5043671;28;20052;-78
2021/11/11 00:55:13;;;;;;;25.08;10.93;;;9.20;99.90;;;;;;5044994;28;20029;-78
2021/11/11 00:57:39;;;;;;;30.25;12.50;;;9.20;99.90;;;;;;5044841;28;20079;-78
2021/11/11 01:00:09;;;;;;;27.60;12.48;;;9.20;99.90;;;;;;5044749;28;20025;-77
2021/11/11 01:02:36;;;;;;;26.13;11.30;;;9.10;99.90;;;;;;5044716;28;20029;-78
2021/11/11 01:05:02;;;;;;;43.20;12.85;;;9.20;99.90;;;;;;5044831;28;20022;-77
2021/11/11 01:07:28;;;;;;;37.30;15.15;;;9.10;99.90;;;;;;5044828;28;20037;-79
2021/11/11 01:09:53;;;;;;;45.72;12.95;;;9.10;99.90;;;;;;5044869;28;20033;-79
2021/11/11 01:12:19;;;;;;;40.88;13.00;;;9.20;99.90;;;;;;5043471;28;20129;-77
2021/11/11 01:14:44;;;;;;;39.67;12.63;;;9.20;99.90;;;;;;5043137;28;20053;-78
2021/11/11 01:17:10;;;;;;;21.60;10.60;;;9.20;99.90;;;;;;5044962;28;20038;-79
2021/11/11 01:19:36;;;;;;;32.90;11.05;;;9.10;99.90;;;;;;5044383;28;20029;-77
2021/11/11 01:22:03;;;;;;;29.15;12.50;;;9.10;99.90;;;;;;5044600;28;20035;-80
2021/11/11 01:24:29;;;;;;;33.63;11.98;;;9.20;99.90;;;;;;5044573;28;20049;-78
2021/11/11 01:26:55;;;;;;;25.65;11.65;;;9.10;99.90;;;;;;5043477;28;20042;-79
2021/11/11 01:29:21;;;;;;;29.77;12.45;;;9.10;99.90;;;;;;5044202;28;20079;-79
2021/11/11 01:31:47;;;;;;;29.83;11.40;;;9.10;99.90;;;;;;5043622;28;20064;-77
2021/11/11 01:34:12;;;;;;;39.08;12.10;;;9.10;99.90;;;;;;5042157;28;20092;-79
2021/11/11 01:36:38;;;;;;;24.13;11.68;;;9.00;99.90;;;;;;5045879;28;20021;-79
2021/11/11 01:39:05;;;;;;;30.08;12.20;;;9.00;99.90;;;;;;5047177;28;20114;-77
2021/11/11 01:41:32;;;;;;;30.90;12.52;;;9.00;99.90;;;;;;5045779;28;20029;-78
2021/11/11 01:43:57;;;;;;;35.47;11.30;;;9.00;99.90;;;;;;5047062;28;20025;-79
2021/11/11 01:46:23;;;;;;;25.90;12.13;;;9.00;99.90;;;;;;5047157;28;20037;-79
2021/11/11 01:48:49;;;;;;;31.70;12.25;;;9.00;99.90;;;;;;5047198;28;20064;-78
2021/11/11 01:51:16;;;;;;;23.85;11.13;;;9.00;99.90;;;;;;5045819;28;20096;-77
2021/11/11 01:53:42;;;;;;;27.60;12.18;;;9.00;99.90;;;;;;5046733;28;20018;-78
2021/11/11 01:56:07;;;;;;;35.35;11.85;;;9.00;99.90;;;;;;5046814;28;20051;-77
2021/11/11 01:58:33;;;;;;;33.75;12.02;;;9.00;99.90;;;;;;5045418;28;20049;-77
2021/11/11 02:01:00;;;;;;;26.58;11.70;;;9.00;99.90;;;;;;5045616;28;20022;-77
2021/11/11 02:03:27;;;;;;;26.35;11.93;;;8.90;99.90;;;;;;5046944;28;20051;-77
2021/11/11 02:05:53;;;;;;;27.08;11.20;;;8.90;99.90;;;;;;5045610;28;20052;-77
2021/11/11 02:08:21;;;;;;;24.98;12.98;;;8.90;99.90;;;;;;5046647;28;20024;-78
2021/11/11 02:10:47;;;;;;;26.50;11.20;;;8.90;99.90;;;;;;5046675;28;20026;-78
2021/11/11 02:13:13;;;;;;;28.73;11.82;;;8.90;99.90;;;;;;5045424;28;20036;-78
2021/11/11 02:15:39;;;;;;;27.42;12.20;;;8.90;99.90;;;;;;5045222;28;20064;-78
2021/11/11 02:18:08;;;;;;;37.30;12.48;;;8.90;99.90;;;;;;5045124;28;20021;-77
2021/11/11 02:20:37;;;;;;;27.27;11.90;;;8.90;99.90;;;;;;5045148;28;20029;-78
2021/11/11 02:23:07;;;;;;;31.88;12.02;;;8.90;99.90;;;;;;5046134;28;20107;-77
2021/11/11 02:25:33;;;;;;;32.22;12.63;;;8.90;99.90;;;;;;5044979;28;20124;-78
2021/11/11 02:28:02;;;;;;;31.67;13.32;;;8.90;99.90;;;;;;5046409;28;20556;-78
2021/11/11 02:30:30;;;;;;;36.28;12.48;;;8.90;99.90;;;;;;5006504;28;1160789;-78
2021/11/11 02:32:56;;;;;;;33.13;12.35;;;8.90;99.90;;;;;;5046129;28;20429;-78
2021/11/11 02:35:22;;;;;;;28.35;11.43;;;8.90;99.90;;;;;;5046465;28;20040;-78
2021/11/11 02:37:49;;;;;;;22.35;11.40;;;8.90;99.90;;;;;;5046418;28;20033;-77
2021/11/11 02:40:26;;;;;;;28.80;11.63;;;8.90;99.90;;;;;;5046133;28;20108;-77
2021/11/11 02:42:54;;;;;;;32.22;12.20;;;8.90;99.90;;;;;;5046075;28;20120;-77
2021/11/11 02:45:25;;;;;;;39.53;13.35;;;8.90;99.90;;;;;;5046864;28;20128;-78
2021/11/11 02:47:53;;;;;;;27.20;11.05;;;8.90;99.90;;;;;;5047423;28;20021;-77
2021/11/11 02:50:21;;;;;;;36.20;13.25;;;8.90;99.90;;;;;;5045961;28;20033;-79
2021/11/11 02:52:49;;;;;;;30.48;12.05;;;9.00;99.90;;;;;;5046092;28;20032;-80
2021/11/11 02:55:15;;;;;;;30.73;12.30;;;8.90;99.90;;;;;;5047083;28;20060;-78
2021/11/11 02:57:42;;;;;;;31.33;14.52;;;8.90;99.90;;;;;;5045690;28;20025;-78
2021/11/11 03:00:15;;;;;;;43.38;12.32;;;8.90;99.90;;;;;;5045696;28;20025;-78
2021/11/11 03:02:43;;;;;;;27.80;11.77;;;8.90;99.90;;;;;;5045650;28;20036;-77
2021/11/11 03:05:11;;;;;;;34.75;13.27;;;8.90;99.90;;;;;;5045491;28;20132;-77
2021/11/11 03:07:38;;;;;;;34.78;12.65;;;8.90;99.90;;;;;;5046701;28;20546;-78
2021/11/11 03:10:18;;;;;;;35.80;13.45;;;8.90;99.90;;;;;;5046755;28;20461;-78
2021/11/11 03:12:45;;;;;;;38.42;12.20;;;8.90;99.90;;;;;;5042046;28;20038;-78
2021/11/11 03:15:11;;;;;;;27.27;12.38;;;9.00;99.90;;;;;;5026878;28;20034;-78
2021/11/11 03:17:38;;;;;;;32.25;13.15;;;9.00;99.90;;;;;;5025567;28;20044;-77
2021/11/11 03:20:05;;;;;;;30.13;12.07;;;9.00;99.90;;;;;;5025228;28;20463;-78
2021/11/11 03:22:30;;;;;;;31.92;13.93;;;9.00;99.90;;;;;;5026667;28;20022;-77
2021/11/11 03:24:58;;;;;;;30.13;11.90;;;9.00;99.90;;;;;;5025381;28;20037;-78
2021/11/11 03:27:23;;;;;;;38.92;14.55;;;9.00;99.90;;;;;;5026617;28;20125;-78
2021/11/11 03:29:51;;;;;;;35.80;12.40;;;9.00;99.90;;;;;;5025366;28;20074;-80
2021/11/11 03:32:21;;;;;;;35.17;13.52;;;9.00;99.90;;;;;;5042041;28;20056;-79
2021/11/11 03:34:47;;;;;;;32.13;12.93;;;9.00;99.90;;;;;;5025426;28;20438;-79
2021/11/11 03:37:14;;;;;;;36.25;12.88;;;9.00;99.90;;;;;;5026897;28;20026;-77
2021/11/11 03:39:39;;;;;;;32.50;12.52;;;9.00;99.90;;;;;;5026853;28;20022;-77
2021/11/11 03:42:08;;;;;;;23.95;11.23;;;9.00;99.90;;;;;;5025344;28;20029;-76
2021/11/11 03:44:34;;;;;;;30.52;12.63;;;9.00;99.90;;;;;;5025151;28;20034;-78
2021/11/11 03:47:02;;;;;;;36.63;12.38;;;9.00;99.90;;;;;;5026181;28;20097;-78
2021/11/11 03:49:29;;;;;;;35.85;13.68;;;9.00;99.90;;;;;;5026248;28;20026;-79
2021/11/11 03:51:55;;;;;;;31.55;11.55;;;9.10;99.90;;;;;;5026263;28;20658;-78
2021/11/11 03:54:24;;;;;;;29.73;12.00;;;9.10;99.90;;;;;;5025130;28;20029;-79
2021/11/11 03:56:50;;;;;;;27.63;12.30;;;9.10;99.90;;;;;;5026255;28;20026;-78
2021/11/11 03:59:17;;;;;;;29.60;11.23;;;9.10;99.90;;;;;;5025511;28;20022;-79
2021/11/11 04:01:44;;;;;;;28.60;12.40;;;9.10;99.90;;;;;;5026104;28;20061;-78
2021/11/11 04:04:10;;;;;;;35.67;12.07;;;9.10;99.90;;;;;;5025951;28;20026;-77
2021/11/11 04:06:35;;;;;;;30.60;13.43;;;9.10;99.90;;;;;;5025790;28;20040;-79
2021/11/11 04:09:02;;;;;;;32.35;12.98;;;9.10;99.90;;;;;;5024456;28;20030;-77
2021/11/11 04:11:28;;;;;;;33.22;13.65;;;9.10;99.90;;;;;;5025945;28;20029;-77
2021/11/11 04:13:55;;;;;;;28.27;11.93;;;9.10;99.90;;;;;;5026031;28;20030;-78
2021/11/11 04:16:21;;;;;;;33.53;13.50;;;9.10;99.90;;;;;;5024651;28;20026;-77
2021/11/11 04:18:47;;;;;;;27.55;13.05;;;9.20;99.90;;;;;;5025952;28;20034;-76
2021/11/11 04:21:15;;;;;;;40.20;13.35;;;9.20;99.90;;;;;;5025690;28;20108;-78
2021/11/11 04:23:41;;;;;;;34.60;13.63;;;9.20;99.90;;;;;;5024127;28;20034;-76
2021/11/11 04:28:35;;;;;;;30.40;12.35;;;9.20;99.90;;;;;;5025516;28;20030;-79
2021/11/11 04:31:06;;;;;;;37.22;12.80;;;9.20;99.90;;;;;;5033680;28;20057;-78
2021/11/11 04:33:34;;;;;;;28.88;11.25;;;9.10;99.90;;;;;;5025450;28;20046;-76
2021/11/11 04:36:05;;;;;;;80.93;25.13;;;9.20;99.90;;;;;;5024155;28;20022;-79
2021/11/11 05:04:31;;;;;;;42.25;14.82;;;9.10;99.90;;;;;;5025079;28;20025;-77
2021/11/11 05:06:57;;;;;;;31.00;13.60;;;9.20;99.90;;;;;;5025008;28;20084;-77
2021/11/11 05:09:23;;;;;;;37.30;14.23;;;9.10;99.90;;;;;;5023627;28;20125;-76
2021/11/11 05:11:49;;;;;;;28.52;12.32;;;9.20;99.90;;;;;;5040162;28;20068;-76
2021/11/11 05:14:15;;;;;;;28.35;12.60;;;9.10;99.90;;;;;;5024838;28;20029;-76
2021/11/11 05:16:41;;;;;;;37.40;12.38;;;9.10;99.90;;;;;;5023557;28;20122;-77
2021/11/11 05:19:06;;;;;;;34.05;14.18;;;9.20;99.90;;;;;;5023522;28;20022;-77
2021/11/11 05:21:32;;;;;;;40.00;14.13;;;9.10;99.90;;;;;;5023578;28;20018;-77
2021/11/11 05:23:58;;;;;;;37.33;13.25;;;9.10;99.90;;;;;;5023397;28;20018;-78
2021/11/11 05:26:24;;;;;;;32.10;13.98;;;9.10;99.90;;;;;;5023466;28;20042;-77
2021/11/11 05:28:50;;;;;;;28.50;13.45;;;9.10;99.90;;;;;;5023512;28;20030;-78
2021/11/11 05:31:17;;;;;;;35.88;14.00;;;9.10;99.90;;;;;;5023612;28;20422;-78
2021/11/11 05:33:43;;;;;;;31.35;12.48;;;9.10;99.90;;;;;;5023299;28;20090;-78
2021/11/11 05:36:09;;;;;;;37.65;14.63;;;9.20;99.90;;;;;;5023408;28;20398;-79
2021/11/11 05:38:35;;;;;;;31.13;12.77;;;9.10;99.90;;;;;;5024617;28;20041;-77
2021/11/11 05:41:00;;;;;;;35.80;14.15;;;9.00;99.90;;;;;;5023217;28;20033;-77
2021/11/11 05:43:27;;;;;;;37.40;14.65;;;9.10;99.90;;;;;;5024773;28;20026;-78
2021/11/11 05:45:53;;;;;;;34.95;14.48;;;9.10;99.90;;;;;;5023403;28;20042;-78
2021/11/11 05:48:19;;;;;;;36.45;14.23;;;9.10;99.90;;;;;;5040147;28;20116;-77
2021/11/11 05:50:44;;;;;;;33.22;15.07;;;9.10;99.90;;;;;;5025009;28;20383;-77
2021/11/11 05:53:11;;;;;;;32.05;14.18;;;9.10;99.90;;;;;;5024691;28;20052;-78
2021/11/11 05:55:37;;;;;;;39.28;15.57;;;9.10;99.90;;;;;;5024645;28;20108;-78
2021/11/11 05:58:02;;;;;;;52.00;17.67;;;9.10;99.90;;;;;;5024624;28;20101;-77
2021/11/11 06:00:29;;;;;;;42.80;16.17;;;9.10;99.90;;;;;;5024603;28;20030;-78
2021/11/11 06:02:55;;;;;;;32.70;13.63;;;9.10;99.90;;;;;;5024531;28;20026;-75
2021/11/11 06:05:21;;;;;;;34.85;16.15;;;9.10;99.90;;;;;;5024440;28;20056;-78
2021/11/11 06:07:48;;;;;;;40.95;15.70;;;9.00;99.90;;;;;;5023157;28;20034;-80
2021/11/11 06:10:14;;;;;;;39.00;14.43;;;9.00;99.90;;;;;;5023101;28;20041;-76
2021/11/11 06:12:40;;;;;;;43.35;15.95;;;9.00;99.90;;;;;;5024342;28;20029;-79
2021/11/11 06:15:07;;;;;;;43.80;15.63;;;9.00;99.90;;;;;;5023011;28;20057;-78
2021/11/11 06:17:32;;;;;;;47.33;16.70;;;9.00;99.90;;;;;;5022603;28;20051;-76
2021/11/11 06:20:00;;;;;;;50.33;14.43;;;9.00;99.90;;;;;;5024413;28;20086;-76
2021/11/11 06:22:26;;;;;;;36.92;14.38;;;9.00;99.90;;;;;;5027457;28;20026;-77
2021/11/11 06:24:52;;;;;;;47.20;14.98;;;9.00;99.90;;;;;;5027960;28;20036;-78
2021/11/11 06:27:18;;;;;;;42.83;16.15;;;9.00;99.90;;;;;;5027709;28;20034;-77
2021/11/11 06:29:44;;;;;;;49.67;16.70;;;9.00;99.90;;;;;;5027410;28;20050;-77
2021/11/11 06:32:10;;;;;;;45.58;15.95;;;9.10;99.90;;;;;;5026371;28;20050;-76
2021/11/11 06:34:35;;;;;;;39.75;14.52;;;9.00;99.90;;;;;;5026297;28;20030;-76
2021/11/11 06:37:01;;;;;;;33.60;13.93;;;9.00;99.90;;;;;;5027856;28;20030;-77
2021/11/11 06:39:27;;;;;;;34.75;13.02;;;9.00;99.90;;;;;;5027499;28;20033;-75
2021/11/11 06:41:52;;;;;;;35.65;13.02;;;9.00;99.90;;;;;;5027831;28;20030;-77
2021/11/11 06:44:23;;;;;;;33.97;14.55;;;9.00;99.90;;;;;;5030140;28;20058;-77
2021/11/11 06:46:51;;;;;;;36.25;13.77;;;9.00;99.90;;;;;;5039380;28;20041;-78
2021/11/11 06:49:17;;;;;;;35.90;14.10;;;9.00;99.90;;;;;;5053389;28;20029;-77
2021/11/11 06:51:44;;;;;;;36.05;14.30;;;9.00;99.90;;;;;;5042161;28;20080;-78
2021/11/11 06:54:10;;;;;;;31.27;13.40;;;9.00;99.90;;;;;;5043750;28;20092;-75
2021/11/11 06:56:36;;;;;;;34.45;13.80;;;9.00;99.90;;;;;;5039141;28;20026;-76
2021/11/11 06:59:03;;;;;;;36.95;13.48;;;8.90;99.90;;;;;;5046832;28;20116;-76
2021/11/11 07:01:29;;;;;;;37.40;13.88;;;9.00;99.90;;;;;;5028140;28;20033;-78
2021/11/11 07:03:55;;;;;;;46.47;14.82;;;9.00;99.90;;;;;;5025543;28;20022;-77
2021/11/11 07:06:21;;;;;;;26.88;12.63;;;9.00;99.90;;;;;;5027170;28;20509;-76
2021/11/11 07:08:47;;;;;;;46.40;14.43;;;9.00;99.90;;;;;;5026968;28;20030;-77
2021/11/11 07:11:12;;;;;;;33.33;11.98;;;9.00;99.90;;;;;;5026532;28;20052;-78
2021/11/11 07:13:38;;;;;;;32.63;13.43;;;9.00;99.90;;;;;;5038431;28;20128;-77
2021/11/11 07:16:04;;;;;;;38.58;14.10;;;9.00;99.90;;;;;;5037284;28;20060;-78
2021/11/11 07:18:30;;;;;;;44.95;13.02;;;9.00;99.90;;;;;;5034509;28;20053;-77
2021/11/11 07:20:56;;;;;;;27.75;11.70;;;9.00;99.90;;;;;;5036897;28;20033;-79
2021/11/11 07:23:23;;;;;;;30.70;13.82;;;9.00;99.90;;;;;;5029297;28;20470;-76
2021/11/11 07:25:50;;;;;;;27.00;12.02;;;9.00;99.90;;;;;;5044396;28;20037;-75
2021/11/11 07:28:17;;;;;;;29.60;12.77;;;9.10;99.90;;;;;;5040704;28;20226;-77
2021/11/11 07:30:45;;;;;;;40.42;13.80;;;9.10;99.90;;;;;;5043017;28;20421;-77
2021/11/11 07:33:12;;;;;;;34.60;12.40;;;9.10;99.90;;;;;;5045181;28;20086;-77
2021/11/11 07:35:40;;;;;;;22.40;11.73;;;9.10;99.90;;;;;;5046035;28;20037;-76
2021/11/11 07:38:07;;;;;;;28.15;11.93;;;9.10;99.90;;;;;;5046203;28;20080;-78
2021/11/11 07:40:35;;;;;;;31.98;11.43;;;9.10;99.90;;;;;;5046340;28;20029;-76
2021/11/11 07:43:08;;;;;;;24.98;12.68;;;9.20;99.90;;;;;;5045017;28;20053;-78
2021/11/11 07:45:35;;;;;;;37.10;12.13;;;9.10;99.90;;;;;;5042943;28;20034;-74
2021/11/11 07:48:03;;;;;;;28.45;12.07;;;9.10;99.90;;;;;;5039727;28;20092;-78
2021/11/11 07:50:32;;;;;;;26.45;11.25;;;9.10;99.90;;;;;;5040495;28;20026;-76
2021/11/11 07:53:00;;;;;;;30.20;12.35;;;9.10;99.90;;;;;;5046006;28;20037;-79
2021/11/11 07:55:38;;;;;;;33.63;11.77;;;9.10;99.90;;;;;;5054993;28;20031;-77
2021/11/11 07:58:04;;;;;;;26.73;12.00;;;9.10;99.90;;;;;;5044628;28;20034;-79
2021/11/11 08:00:30;;;;;;;29.13;11.50;;;9.10;99.90;;;;;;5047568;28;20028;-74
2021/11/11 08:02:56;;;;;;;33.10;11.65;;;9.20;99.90;;;;;;5058585;28;20465;-78
2021/11/11 08:05:22;;;;;;;30.85;12.07;;;9.20;99.90;;;;;;5058780;28;20075;-75
2021/11/11 08:07:49;;;;;;;41.72;12.13;;;9.20;99.90;;;;;;5045909;28;20033;-77
2021/11/11 08:10:21;;;;;;;25.02;10.75;;;9.20;99.90;;;;;;5050837;28;20021;-79
2021/11/11 08:12:48;;;;;;;29.20;10.90;;;9.20;99.90;;;;;;5064700;28;20025;-75
2021/11/11 08:15:15;;;;;;;49.05;10.75;;;9.30;99.90;;;;;;5063891;28;20025;-77
2021/11/11 08:17:41;;;;;;;22.45;9.65;;;9.30;99.90;;;;;;5064250;28;20033;-78
2021/11/11 08:20:08;;;;;;;25.50;10.27;;;9.30;99.90;;;;;;5064165;28;20167;-78
2021/11/11 08:22:34;;;;;;;27.50;9.25;;;9.40;99.90;;;;;;5063857;28;20033;-75
2021/11/11 08:25:01;;;;;;;22.67;9.15;;;9.40;99.90;;;;;;5065188;28;20122;-75
2021/11/11 08:27:26;;;;;;;24.48;10.13;;;9.40;99.90;;;;;;5065158;28;20037;-77
2021/11/11 08:29:52;;;;;;;25.77;9.23;;;9.40;99.90;;;;;;5065186;28;20045;-77
2021/11/11 08:32:19;;;;;;;26.50;9.15;;;9.40;99.90;;;;;;5046884;28;20497;-74
2021/11/11 08:34:46;;;;;;;28.45;9.57;;;9.50;99.90;;;;;;5059647;28;20068;-78
2021/11/11 08:37:12;;;;;;;20.42;8.73;;;9.50;99.90;;;;;;5064036;28;20029;-74
2021/11/11 08:39:39;;;;;;;18.23;9.57;;;9.60;99.90;;;;;;5063201;28;20060;-77
2021/11/11 08:42:08;;;;;;;27.23;9.48;;;9.60;99.90;;;;;;5062821;28;20037;-76
2021/11/11 08:44:34;;;;;;;19.95;7.82;;;9.60;99.90;;;;;;5040661;28;20022;-78
2021/11/11 08:47:00;;;;;;;26.77;8.90;;;9.70;99.90;;;;;;5036630;28;20052;-75
2021/11/11 08:49:27;;;;;;;16.63;8.05;;;9.70;99.90;;;;;;5024743;28;20486;-76
2021/11/11 08:51:52;;;;;;;23.08;8.35;;;9.70;99.90;;;;;;5042300;28;20028;-78
2021/11/11 08:54:21;;;;;;;19.10;9.57;;;9.80;99.90;;;;;;5063064;28;20048;-76
2021/11/11 08:56:48;;;;;;;20.05;7.95;;;9.80;99.90;;;;;;5063335;28;20035;-77
2021/11/11 08:59:20;;;;;;;22.92;9.35;;;9.80;99.90;;;;;;5063172;28;20039;-75
2021/11/11 09:01:49;;;;;;;29.58;8.63;;;9.90;99.90;;;;;;5064380;28;20467;-79
2021/11/11 09:04:15;;;;;;;21.35;8.02;;;9.90;99.90;;;;;;5053754;28;20108;-77
2021/11/11 09:06:44;;;;;;;26.25;8.35;;;10.00;99.90;;;;;;5034077;28;20052;-78
2021/11/11 09:09:12;;;;;;;25.15;8.63;;;10.10;99.90;;;;;;5042330;28;20105;-76
2021/11/11 09:11:37;;;;;;;23.75;9.65;;;10.10;99.90;;;;;;5035342;28;20032;-79
2021/11/11 09:14:05;;;;;;;23.30;9.25;;;10.00;99.90;;;;;;5023446;28;20117;-78
2021/11/11 09:16:31;;;;;;;21.65;8.63;;;10.10;99.90;;;;;;5023445;28;20026;-78
2021/11/11 09:19:00;;;;;;;19.08;8.38;;;10.20;99.90;;;;;;5024712;28;20382;-78
2021/11/11 09:21:29;;;;;;;21.23;8.70;;;10.20;99.90;;;;;;5025002;28;20045;-76
2021/11/11 09:23:55;;;;;;;16.92;8.82;;;10.20;99.90;;;;;;5026080;28;20553;-78
2021/11/11 09:26:24;;;;;;;25.50;9.40;;;10.20;99.90;;;;;;5037582;28;20720;-78
2021/11/11 09:28:50;;;;;;;15.70;7.80;;;10.20;99.90;;;;;;5039657;28;20021;-76
2021/11/11 09:31:17;;;;;;;21.17;8.48;;;10.20;99.90;;;;;;5043754;28;20033;-79
2021/11/11 09:33:44;;;;;;;22.58;9.13;;;10.20;99.90;;;;;;5044487;28;20030;-77
2021/11/11 09:36:15;;;;;;;18.13;7.88;;;10.30;99.90;;;;;;5044506;28;20025;-79
2021/11/11 09:38:42;;;;;;;16.48;6.63;;;10.30;99.90;;;;;;5037747;28;20125;-78
2021/11/11 09:41:10;;;;;;;24.48;8.85;;;10.30;99.90;;;;;;5025641;28;20037;-77
2021/11/11 09:43:38;;;;;;;19.88;8.38;;;10.30;99.90;;;;;;5038788;28;20037;-80
2021/11/11 09:46:05;;;;;;;18.48;7.80;;;10.40;99.90;;;;;;5042796;28;20064;-77
2021/11/11 09:48:33;;;;;;;20.48;8.65;;;10.40;99.90;;;;;;5034814;28;20022;-79
2021/11/11 09:51:01;;;;;;;23.15;7.80;;;10.50;99.90;;;;;;5024080;28;20022;-80
2021/11/11 09:53:29;;;;;;;16.60;7.57;;;10.60;99.90;;;;;;5041422;28;20026;-79
2021/11/11 09:58:41;;;;;;;20.58;9.80;;;10.60;99.90;;;;;;5044939;28;20028;-78
2021/11/11 10:01:15;;;;;;;18.80;8.00;;;10.60;99.90;;;;;;5045875;28;20371;-78
2021/11/11 10:03:45;;;;;;;20.33;8.55;;;10.70;99.90;;;;;;5047829;28;20018;-74
2021/11/11 10:06:13;;;;;;;21.25;8.23;;;10.60;99.90;;;;;;5039187;28;20038;-78
2021/11/11 10:08:47;;;;;;;15.27;8.13;;;10.60;99.90;;;;;;5027097;28;20038;-78
2021/11/11 10:11:34;;;;;;;15.40;7.45;;;10.60;99.90;;;;;;5041559;28;20490;-79
2021/11/11 10:14:00;;;;;;;19.65;8.23;;;10.60;99.90;;;;;;5037641;28;20404;-79
2021/11/11 10:16:27;;;;;;;18.00;8.13;;;10.50;99.90;;;;;;5040547;28;20034;-77
2021/11/11 10:18:56;;;;;;;24.88;7.53;;;10.50;99.90;;;;;;5043745;28;20021;-80
2021/11/11 10:22:03;;;;;;;21.40;10.32;;;10.40;99.90;;;;;;5046802;28;20080;-80
2021/11/11 10:25:00;;;;;;;16.15;8.13;;;10.40;99.90;;;;;;5028321;28;20041;-78
2021/11/11 10:30:03;;;;;;;19.83;7.80;;;10.30;99.90;;;;;;5045270;28;20113;-77
2021/11/11 10:32:36;;;;;;;20.63;8.18;;;10.30;99.90;;;;;;5044037;28;20072;-80
2021/11/11 10:35:10;;;;;;;19.42;8.35;;;10.30;99.90;;;;;;5043791;28;20036;-73
2021/11/11 10:37:42;;;;;;;23.08;7.60;;;10.20;99.90;;;;;;5041995;28;20025;-79
2021/11/11 10:40:12;;;;;;;35.88;9.45;;;10.20;99.90;;;;;;5045731;28;20029;-79
2021/11/11 10:42:41;;;;;;;29.23;8.90;;;10.20;99.90;;;;;;5041936;28;20028;-81
2021/11/11 10:45:26;;;;;;;23.92;8.75;;;10.20;99.90;;;;;;5044346;28;20057;-80
2021/11/11 10:47:56;;;;;;;23.10;8.25;;;10.30;99.90;;;;;;5045181;28;20088;-80
2021/11/11 10:50:28;;;;;;;23.75;9.23;;;10.30;99.90;;;;;;5046068;28;20061;-78
2021/11/11 10:53:00;;;;;;;14.48;7.55;;;10.30;99.90;;;;;;5044166;28;20026;-78
2021/11/11 10:55:32;;;;;;;21.95;7.75;;;10.30;99.90;;;;;;5050347;28;20080;-81
2021/11/11 10:58:39;;;;;;;19.90;6.90;;;10.40;99.90;;;;;;5046706;28;20028;-79
2021/11/11 11:01:10;;;;;;;16.80;8.02;;;10.40;99.90;;;;;;5041524;28;20033;-77
2021/11/11 11:03:46;;;;;;;19.05;9.15;;;10.50;99.90;;;;;;5044539;28;20378;-74
2021/11/11 11:06:11;;;;;;;14.20;7.63;;;10.40;99.90;;;;;;5047901;28;20128;-80
2021/11/11 11:08:39;;;;;;;13.70;7.10;;;10.50;99.90;;;;;;5045525;28;20029;-76
2021/11/11 11:11:11;;;;;;;24.05;8.02;;;10.50;99.90;;;;;;5045434;28;20026;-78
2021/11/11 11:13:40;;;;;;;21.45;7.45;;;10.60;99.90;;;;;;5047101;28;20036;-80
2021/11/11 11:16:07;;;;;;;17.58;7.47;;;10.60;99.90;;;;;;5037281;28;20051;-77
2021/11/11 11:18:36;;;;;;;22.20;8.40;;;10.50;99.90;;;;;;5046569;28;20053;-80
2021/11/11 11:21:16;;;;;;;16.50;7.25;;;10.50;99.90;;;;;;5044973;28;20017;-76
2021/11/11 11:23:45;;;;;;;16.48;8.10;;;10.50;99.90;;;;;;5044249;28;20120;-76
2021/11/11 11:26:23;;;;;;;20.70;8.95;;;10.50;99.90;;;;;;5047393;28;20037;-80
2021/11/11 11:29:25;;;;;;;27.13;7.32;;;10.50;99.90;;;;;;5045604;28;20087;-78
2021/11/11 11:32:40;;;;;;;17.00;6.97;;;10.50;99.90;;;;;;5046888;28;20801;-80
2021/11/11 11:34:44;;;;;;;16.55;7.72;;;10.60;99.90;;;;;;5039851;28;20041;-79
2021/11/11 11:37:16;;;;;;;13.07;7.18;;;10.60;99.90;;;;;;5043503;28;20032;-78
2021/11/11 11:39:48;;;;;;;15.45;6.63;;;10.60;99.90;;;;;;5045987;28;20025;-78
2021/11/11 11:42:21;;;;;;;20.58;7.00;;;10.60;99.90;;;;;;5045647;28;20034;-76
2021/11/11 11:44:50;;;;;;;15.70;6.78;;;10.60;99.90;;;;;;5045329;28;20026;-79
2021/11/11 11:47:32;;;;;;;18.35;6.80;;;10.60;99.90;;;;;;5044786;28;20528;-79
2021/11/11 11:50:02;;;;;;;14.10;7.47;;;10.60;99.90;;;;;;5046359;28;20032;-80
2021/11/11 11:52:33;;;;;;;18.88;6.47;;;10.60;99.90;;;;;;5038524;28;20085;-82
2021/11/11 11:55:15;;;;;;;15.15;6.80;;;10.70;99.90;;;;;;5031258;28;20029;-74
2021/11/11 12:03:39;;;;;;;9.85;5.13;;;10.70;99.90;;;;;;5018583;28;20048;-82
2021/11/11 12:15:27;;;;;;;13.55;6.88;;;10.70;99.90;;;;;;5025035;28;20033;-83
2021/11/11 12:38:41;;;;;;;20.92;6.53;;;10.90;99.90;;;;;;5044559;28;20092;-79
2021/11/11 12:41:16;;;;;;;12.90;6.63;;;10.90;99.90;;;;;;5031821;28;20053;-81
2021/11/11 12:43:43;;;;;;;16.10;5.95;;;10.80;99.90;;;;;;5030757;28;20053;-79
2021/11/11 12:47:01;;;;;;;18.02;7.07;;;10.80;99.90;;;;;;5025053;28;20459;-77
2021/11/11 12:49:35;;;;;;;16.05;5.70;;;10.80;99.90;;;;;;4994068;28;20114;-78
2021/11/11 12:52:23;;;;;;;14.27;6.07;;;10.80;99.90;;;;;;5034615;28;20041;-79
2021/11/11 12:54:51;;;;;;;12.77;6.78;;;10.80;99.90;;;;;;5023557;28;20037;-77
2021/11/11 12:57:18;;;;;;;12.63;6.32;;;10.80;99.90;;;;;;5024006;28;20018;-80
2021/11/11 12:59:44;;;;;;;11.68;5.60;;;10.80;99.90;;;;;;5024771;28;20033;-82
2021/11/11 13:02:11;;;;;;;18.35;5.95;;;10.80;99.90;;;;;;5029548;28;20026;-78
2021/11/11 13:04:47;;;;;;;13.13;5.90;;;10.90;99.90;;;;;;5023504;28;20033;-78
2021/11/11 13:07:32;;;;;;;16.35;6.22;;;10.90;99.90;;;;;;5031517;28;20064;-80
2021/11/11 13:10:18;;;;;;;13.70;6.47;;;10.90;99.90;;;;;;5043542;28;20034;-79
2021/11/11 13:13:10;;;;;;;11.88;5.93;;;10.90;99.90;;;;;;5043695;28;20029;-80
2021/11/11 13:15:41;;;;;;;19.80;7.10;;;10.90;99.90;;;;;;5041997;28;20025;-73
2021/11/11 13:18:07;;;;;;;17.73;5.75;;;10.80;99.90;;;;;;5042113;28;20041;-80
2021/11/11 13:20:43;;;;;;;13.02;5.82;;;10.90;99.90;;;;;;5042813;28;20478;-78
2021/11/11 13:23:28;;;;;;;20.25;6.90;;;10.90;99.90;;;;;;5044196;28;20052;-85
2021/11/11 13:58:41;;;;;;;18.45;7.28;;;10.90;99.90;;;;;;5028365;28;20084;-76
2021/11/11 14:00:15;;;;;;;17.50;6.65;;;10.90;99.90;;;;;;5048377;28;20052;-81
2021/11/11 14:03:27;;;;;;;13.65;6.90;;;10.80;99.90;;;;;;5046993;28;20038;-78
2021/11/11 16:26:23;;;;;;;29.65;12.25;;;10.00;99.90;;;;;;5025268;28;20096;-82
2021/11/11 16:28:53;;;;;;;36.97;14.23;;;10.00;99.90;;;;;;5035545;28;20029;-82
2021/11/11 16:31:21;;;;;;;31.52;11.85;;;10.00;99.90;;;;;;5025862;28;20034;-82
2021/11/11 16:33:48;;;;;;;29.35;11.27;;;10.00;99.90;;;;;;5040722;28;20029;-82
2021/11/11 16:36:18;;;;;;;35.95;11.80;;;10.00;99.90;;;;;;5037507;28;20030;-82
2021/11/11 16:38:46;;;;;;;38.63;13.93;;;10.00;99.90;;;;;;5044233;28;20034;-83
2021/11/11 16:41:12;;;;;;;38.10;13.13;;;10.10;99.90;;;;;;5043790;28;20049;-83
2021/11/11 16:43:39;;;;;;;31.35;12.13;;;10.00;99.90;;;;;;5036158;28;20060;-81
2021/11/11 16:46:05;;;;;;;31.98;12.35;;;10.00;99.90;;;;;;5031044;28;20041;-80
2021/11/11 16:48:32;;;;;;;34.35;14.02;;;10.00;99.90;;;;;;5044061;28;20028;-81